sensor_id;sensor_type;location;lat;lon;timestamp;temperature;humidity
24744;DHT22;12844;52.110;5.548;2023-04-24T03:54:59;18.20;52.00
24744;DHT22;12844;52.110;5.548;2023-04-24T03:57:24;18.20;52.00
24744;DHT22;12844;52.110;5.548;2023-04-24T03:59:50;18.20;52.00
24744;DHT22;12844;52.110;5.548;2023-04-24T04:02:16;18.20;52.00
24744;DHT22;12844;52.110;5.548;2023-04-24T04:04:42;18.20;52.10
24744;DHT22;12844;52.110;5.548;2023-04-24T04:07:07;18.20;52.10
24744;DHT22;12844;52.110;5.548;2023-04-24T04:09:33;18.20;52.10
24744;DHT22;12844;52.110;5.548;2023-04-24T04:11:59;18.20;52.10
24744;DHT22;12844;52.110;5.548;2023-04-24T04:14:26;18.20;52.10
24744;DHT22;12844;52.110;5.548;2023-04-24T04:16:51;18.10;52.10
24744;DHT22;12844;52.110;5.548;2023-04-24T04:19:17;18.20;52.10
24744;DHT22;12844;52.110;5.548;2023-04-24T04:21:42;18.10;52.10
24744;DHT22;12844;52.110;5.548;2023-04-24T04:24:08;18.10;52.10
24744;DHT22;12844;52.110;5.548;2023-04-24T04:26:34;18.20;52.20
24744;DHT22;12844;52.110;5.548;2023-04-24T04:29:00;18.10;52.10
24744;DHT22;12844;52.110;5.548;2023-04-24T04:31:26;18.10;52.20
24744;DHT22;12844;52.110;5.548;2023-04-24T04:33:51;18.10;52.20
24744;DHT22;12844;52.110;5.548;2023-04-24T04:36:17;18.10;52.20
24744;DHT22;12844;52.110;5.548;2023-04-24T04:38:43;18.10;52.20
24744;DHT22;12844;52.110;5.548;2023-04-24T04:41:10;18.10;52.20
24744;DHT22;12844;52.110;5.548;2023-04-24T04:43:36;18.10;52.80
24744;DHT22;12844;52.110;5.548;2023-04-24T04:46:01;18.10;52.20
24744;DHT22;12844;52.110;5.548;2023-04-24T04:48:28;18.10;52.20
24744;DHT22;12844;52.110;5.548;2023-04-24T04:50:54;18.10;52.20
24744;DHT22;12844;52.110;5.548;2023-04-24T04:53:20;18.10;52.20
24744;DHT22;12844;52.110;5.548;2023-04-24T04:55:45;18.10;52.20
24744;DHT22;12844;52.110;5.548;2023-04-24T04:58:12;18.10;52.20
24744;DHT22;12844;52.110;5.548;2023-04-24T05:00:38;18.10;52.20
24744;DHT22;12844;52.110;5.548;2023-04-24T05:03:04;18.10;52.30
24744;DHT22;12844;52.110;5.548;2023-04-24T05:05:30;18.10;52.20
24744;DHT22;12844;52.110;5.548;2023-04-24T05:07:55;18.10;52.30
24744;DHT22;12844;52.110;5.548;2023-04-24T05:10:21;18.10;52.20
24744;DHT22;12844;52.110;5.548;2023-04-24T05:12:47;18.10;52.30
24744;DHT22;12844;52.110;5.548;2023-04-24T05:15:12;18.10;52.30
24744;DHT22;12844;52.110;5.548;2023-04-24T05:17:38;18.10;52.30
24744;DHT22;12844;52.110;5.548;2023-04-24T05:20:05;18.10;52.30
24744;DHT22;12844;52.110;5.548;2023-04-24T05:22:32;18.10;52.30
24744;DHT22;12844;52.110;5.548;2023-04-24T05:24:57;18.00;52.30
24744;DHT22;12844;52.110;5.548;2023-04-24T05:27:23;18.10;52.30
24744;DHT22;12844;52.110;5.548;2023-04-24T05:29:49;18.10;52.30
24744;DHT22;12844;52.110;5.548;2023-04-24T05:32:15;18.10;52.30
24744;DHT22;12844;52.110;5.548;2023-04-24T05:34:40;18.00;52.30
24744;DHT22;12844;52.110;5.548;2023-04-24T05:37:06;18.00;52.30
24744;DHT22;12844;52.110;5.548;2023-04-24T05:39:34;18.10;52.30
24744;DHT22;12844;52.110;5.548;2023-04-24T05:42:00;18.00;52.30
24744;DHT22;12844;52.110;5.548;2023-04-24T05:44:26;18.00;52.30
24744;DHT22;12844;52.110;5.548;2023-04-24T05:46:52;18.00;52.30
24744;DHT22;12844;52.110;5.548;2023-04-24T05:49:18;18.00;52.40
24744;DHT22;12844;52.110;5.548;2023-04-24T05:51:43;18.00;52.40
24744;DHT22;12844;52.110;5.548;2023-04-24T05:54:08;18.00;52.40
24744;DHT22;12844;52.110;5.548;2023-04-24T05:56:35;18.00;52.40
24744;DHT22;12844;52.110;5.548;2023-04-24T05:59:01;18.00;52.40
24744;DHT22;12844;52.110;5.548;2023-04-24T06:01:26;18.10;52.40
24744;DHT22;12844;52.110;5.548;2023-04-24T06:03:52;18.10;52.40
24744;DHT22;12844;52.110;5.548;2023-04-24T06:06:18;18.10;52.40
24744;DHT22;12844;52.110;5.548;2023-04-24T06:08:44;18.00;52.30
24744;DHT22;12844;52.110;5.548;2023-04-24T06:11:10;18.00;52.40
24744;DHT22;12844;52.110;5.548;2023-04-24T06:13:36;18.00;52.30
24744;DHT22;12844;52.110;5.548;2023-04-24T06:16:01;18.10;52.40
24744;DHT22;12844;52.110;5.548;2023-04-24T06:18:27;18.00;52.30
24744;DHT22;12844;52.110;5.548;2023-04-24T06:20:52;18.10;52.30
24744;DHT22;12844;52.110;5.548;2023-04-24T06:23:18;18.00;52.20
24744;DHT22;12844;52.110;5.548;2023-04-24T06:25:43;18.00;52.90
24744;DHT22;12844;52.110;5.548;2023-04-24T06:28:09;18.00;52.30
24744;DHT22;12844;52.110;5.548;2023-04-24T06:30:35;18.00;52.20
24744;DHT22;12844;52.110;5.548;2023-04-24T06:33:00;18.00;52.20
24744;DHT22;12844;52.110;5.548;2023-04-24T06:35:26;18.00;52.20
24744;DHT22;12844;52.110;5.548;2023-04-24T06:37:51;18.00;52.80
24744;DHT22;12844;52.110;5.548;2023-04-24T06:40:17;18.00;52.20
24744;DHT22;12844;52.110;5.548;2023-04-24T06:42:44;18.00;52.80
24744;DHT22;12844;52.110;5.548;2023-04-24T06:45:10;18.00;52.20
24744;DHT22;12844;52.110;5.548;2023-04-24T06:47:35;18.00;52.10
24744;DHT22;12844;52.110;5.548;2023-04-24T06:50:01;18.00;52.10
24744;DHT22;12844;52.110;5.548;2023-04-24T06:52:27;18.00;52.10
24744;DHT22;12844;52.110;5.548;2023-04-24T06:54:52;18.00;52.10
24744;DHT22;12844;52.110;5.548;2023-04-24T06:57:18;18.00;52.10
24744;DHT22;12844;52.110;5.548;2023-04-24T06:59:44;18.00;52.20
24744;DHT22;12844;52.110;5.548;2023-04-24T07:02:10;18.00;52.10
24744;DHT22;12844;52.110;5.548;2023-04-24T07:04:36;18.00;52.70
24744;DHT22;12844;52.110;5.548;2023-04-24T07:07:02;18.00;52.10
24744;DHT22;12844;52.110;5.548;2023-04-24T07:09:27;18.00;52.10
24744;DHT22;12844;52.110;5.548;2023-04-24T07:11:53;18.00;52.10
24744;DHT22;12844;52.110;5.548;2023-04-24T07:14:20;18.00;52.10
24744;DHT22;12844;52.110;5.548;2023-04-24T07:16:45;18.00;52.20
24744;DHT22;12844;52.110;5.548;2023-04-24T07:19:12;18.00;52.20
24744;DHT22;12844;52.110;5.548;2023-04-24T07:21:38;18.00;52.20
24744;DHT22;12844;52.110;5.548;2023-04-24T07:24:03;18.00;52.20
24744;DHT22;12844;52.110;5.548;2023-04-24T07:26:30;18.00;52.20
24744;DHT22;12844;52.110;5.548;2023-04-24T07:28:56;18.00;52.20
24744;DHT22;12844;52.110;5.548;2023-04-24T07:31:22;18.00;52.20
24744;DHT22;12844;52.110;5.548;2023-04-24T07:33:48;18.00;52.20
24744;DHT22;12844;52.110;5.548;2023-04-24T07:36:14;18.00;52.20
24744;DHT22;12844;52.110;5.548;2023-04-24T07:38:44;18.00;52.20
24744;DHT22;12844;52.110;5.548;2023-04-24T07:41:10;18.00;52.20
24744;DHT22;12844;52.110;5.548;2023-04-24T07:43:35;18.00;52.20
24744;DHT22;12844;52.110;5.548;2023-04-24T07:46:01;18.00;52.20
24744;DHT22;12844;52.110;5.548;2023-04-24T07:48:27;18.00;52.20
24744;DHT22;12844;52.110;5.548;2023-04-24T07:50:53;18.00;52.20
24744;DHT22;12844;52.110;5.548;2023-04-24T07:53:18;18.00;52.20
24744;DHT22;12844;52.110;5.548;2023-04-24T07:55:44;18.00;52.20
24744;DHT22;12844;52.110;5.548;2023-04-24T07:58:10;18.00;52.20
24744;DHT22;12844;52.110;5.548;2023-04-24T08:00:35;17.90;52.20
24744;DHT22;12844;52.110;5.548;2023-04-24T08:03:01;18.00;52.20
24744;DHT22;12844;52.110;5.548;2023-04-24T08:05:27;18.00;52.20
24744;DHT22;12844;52.110;5.548;2023-04-24T08:07:54;18.00;52.20
24744;DHT22;12844;52.110;5.548;2023-04-24T08:10:21;18.00;52.30
24744;DHT22;12844;52.110;5.548;2023-04-24T08:12:46;18.00;52.20
24744;DHT22;12844;52.110;5.548;2023-04-24T08:15:12;18.00;52.20
24744;DHT22;12844;52.110;5.548;2023-04-24T08:17:37;18.00;52.30
24744;DHT22;12844;52.110;5.548;2023-04-24T08:20:04;18.00;52.20
24744;DHT22;12844;52.110;5.548;2023-04-24T08:22:31;18.00;52.20
24744;DHT22;12844;52.110;5.548;2023-04-24T08:24:57;18.00;52.20
24744;DHT22;12844;52.110;5.548;2023-04-24T08:27:23;18.00;52.20
24744;DHT22;12844;52.110;5.548;2023-04-24T08:29:49;18.00;52.20
24744;DHT22;12844;52.110;5.548;2023-04-24T08:32:15;18.00;52.20
24744;DHT22;12844;52.110;5.548;2023-04-24T08:34:41;18.00;52.20
24744;DHT22;12844;52.110;5.548;2023-04-24T08:37:06;18.00;52.30
24744;DHT22;12844;52.110;5.548;2023-04-24T08:39:32;18.00;52.20
24744;DHT22;12844;52.110;5.548;2023-04-24T08:41:59;18.00;52.30
24744;DHT22;12844;52.110;5.548;2023-04-24T08:44:33;18.00;52.20
24744;DHT22;12844;52.110;5.548;2023-04-24T08:47:01;18.00;52.20
24744;DHT22;12844;52.110;5.548;2023-04-24T08:49:28;18.00;52.40
24744;DHT22;12844;52.110;5.548;2023-04-24T08:51:54;18.00;52.40
24744;DHT22;12844;52.110;5.548;2023-04-24T08:54:20;18.00;52.40
24744;DHT22;12844;52.110;5.548;2023-04-24T08:56:48;18.10;52.40
24744;DHT22;12844;52.110;5.548;2023-04-24T08:59:14;18.10;52.40
24744;DHT22;12844;52.110;5.548;2023-04-24T09:01:40;18.10;52.50
24744;DHT22;12844;52.110;5.548;2023-04-24T09:04:08;18.10;52.40
24744;DHT22;12844;52.110;5.548;2023-04-24T09:06:38;18.10;52.40
24744;DHT22;12844;52.110;5.548;2023-04-24T09:09:03;18.10;52.40
24744;DHT22;12844;52.110;5.548;2023-04-24T09:11:31;18.10;52.40
24744;DHT22;12844;52.110;5.548;2023-04-24T09:13:57;18.10;52.40
24744;DHT22;12844;52.110;5.548;2023-04-24T09:16:25;18.10;52.40
24744;DHT22;12844;52.110;5.548;2023-04-24T09:18:50;18.10;52.40
24744;DHT22;12844;52.110;5.548;2023-04-24T09:21:16;18.10;52.40
24744;DHT22;12844;52.110;5.548;2023-04-24T09:23:41;18.10;52.40
24744;DHT22;12844;52.110;5.548;2023-04-24T09:26:09;18.10;52.40
24744;DHT22;12844;52.110;5.548;2023-04-24T09:28:37;18.10;52.40
24744;DHT22;12844;52.110;5.548;2023-04-24T09:31:12;18.10;52.40
24744;DHT22;12844;52.110;5.548;2023-04-24T09:33:39;18.10;52.40
24744;DHT22;12844;52.110;5.548;2023-04-24T09:36:04;18.10;52.40
24744;DHT22;12844;52.110;5.548;2023-04-24T09:38:36;18.10;52.40
24744;DHT22;12844;52.110;5.548;2023-04-24T09:41:04;18.10;52.40
24744;DHT22;12844;52.110;5.548;2023-04-24T09:43:30;18.10;52.40
24744;DHT22;12844;52.110;5.548;2023-04-24T09:45:57;18.10;52.30
24744;DHT22;12844;52.110;5.548;2023-04-24T09:48:34;18.10;52.30
24744;DHT22;12844;52.110;5.548;2023-04-24T09:51:01;18.20;52.20
24744;DHT22;12844;52.110;5.548;2023-04-24T09:53:29;18.20;52.20
24744;DHT22;12844;52.110;5.548;2023-04-24T09:55:54;18.20;52.20
24744;DHT22;12844;52.110;5.548;2023-04-24T09:58:28;18.20;52.20
24744;DHT22;12844;52.110;5.548;2023-04-24T10:00:55;18.20;52.10
24744;DHT22;12844;52.110;5.548;2023-04-24T10:03:21;18.20;52.20
24744;DHT22;12844;52.110;5.548;2023-04-24T10:05:48;18.20;52.20
24744;DHT22;12844;52.110;5.548;2023-04-24T10:08:14;18.20;52.20
24744;DHT22;12844;52.110;5.548;2023-04-24T10:10:42;18.20;52.20
24744;DHT22;12844;52.110;5.548;2023-04-24T10:13:12;18.20;52.20
24744;DHT22;12844;52.110;5.548;2023-04-24T10:15:39;18.20;52.20
24744;DHT22;12844;52.110;5.548;2023-04-24T13:27:07;18.20;51.90
24744;DHT22;12844;52.110;5.548;2023-04-24T13:29:33;18.20;51.90
24744;DHT22;12844;52.110;5.548;2023-04-24T13:31:59;18.20;52.00
24744;DHT22;12844;52.110;5.548;2023-04-24T13:34:26;18.20;52.00
24744;DHT22;12844;52.110;5.548;2023-04-24T13:36:56;18.20;52.00
24744;DHT22;12844;52.110;5.548;2023-04-24T13:39:23;18.20;51.90
24744;DHT22;12844;52.110;5.548;2023-04-24T13:41:49;18.20;51.90
24744;DHT22;12844;52.110;5.548;2023-04-24T13:44:18;18.20;51.90
24744;DHT22;12844;52.110;5.548;2023-04-24T13:46:46;18.30;52.00
24744;DHT22;12844;52.110;5.548;2023-04-24T13:49:13;18.30;52.00
24744;DHT22;12844;52.110;5.548;2023-04-24T13:51:39;18.20;52.00
24744;DHT22;12844;52.110;5.548;2023-04-24T13:54:05;18.20;52.00
24744;DHT22;12844;52.110;5.548;2023-04-24T13:56:31;18.20;52.00
24744;DHT22;12844;52.110;5.548;2023-04-24T13:58:56;18.20;52.00
24744;DHT22;12844;52.110;5.548;2023-04-24T14:01:22;18.20;52.00
24744;DHT22;12844;52.110;5.548;2023-04-24T14:03:51;18.20;52.00
24744;DHT22;12844;52.110;5.548;2023-04-24T14:06:18;18.20;52.00
24744;DHT22;12844;52.110;5.548;2023-04-24T14:08:43;18.20;52.00
24744;DHT22;12844;52.110;5.548;2023-04-24T14:11:09;18.20;52.00
24744;DHT22;12844;52.110;5.548;2023-04-24T14:13:36;18.20;52.00
24744;DHT22;12844;52.110;5.548;2023-04-24T14:16:02;18.20;51.90
24744;DHT22;12844;52.110;5.548;2023-04-24T14:18:28;18.20;51.90
24744;DHT22;12844;52.110;5.548;2023-04-24T14:20:54;18.30;52.00
24744;DHT22;12844;52.110;5.548;2023-04-24T14:23:19;18.30;52.00
24744;DHT22;12844;52.110;5.548;2023-04-24T14:25:45;18.30;52.00
24744;DHT22;12844;52.110;5.548;2023-04-24T14:28:11;18.30;52.00
24744;DHT22;12844;52.110;5.548;2023-04-24T14:30:36;18.30;52.00
24744;DHT22;12844;52.110;5.548;2023-04-24T14:33:03;18.30;52.00
24744;DHT22;12844;52.110;5.548;2023-04-24T14:35:29;18.20;51.90
24744;DHT22;12844;52.110;5.548;2023-04-24T14:37:56;18.30;52.00
24744;DHT22;12844;52.110;5.548;2023-04-24T14:40:22;18.30;52.00
24744;DHT22;12844;52.110;5.548;2023-04-24T14:42:47;18.30;52.00
24744;DHT22;12844;52.110;5.548;2023-04-24T14:45:13;18.30;51.90
24744;DHT22;12844;52.110;5.548;2023-04-24T14:47:39;18.30;52.00
24744;DHT22;12844;52.110;5.548;2023-04-24T14:50:05;18.30;52.00
24744;DHT22;12844;52.110;5.548;2023-04-24T14:52:31;18.20;51.90
24744;DHT22;12844;52.110;5.548;2023-04-24T14:54:56;18.30;52.00
24744;DHT22;12844;52.110;5.548;2023-04-24T14:57:22;18.20;51.90
24744;DHT22;12844;52.110;5.548;2023-04-24T14:59:48;18.20;51.90
24744;DHT22;12844;52.110;5.548;2023-04-24T15:02:14;18.20;52.00
24744;DHT22;12844;52.110;5.548;2023-04-24T15:04:39;18.20;52.00
24744;DHT22;12844;52.110;5.548;2023-04-24T15:07:05;18.20;51.90
24744;DHT22;12844;52.110;5.548;2023-04-24T15:09:30;18.30;52.00
24744;DHT22;12844;52.110;5.548;2023-04-24T15:11:57;18.20;51.90
24744;DHT22;12844;52.110;5.548;2023-04-24T15:14:23;18.20;51.90
24744;DHT22;12844;52.110;5.548;2023-04-24T15:16:49;18.20;52.00
24744;DHT22;12844;52.110;5.548;2023-04-24T15:19:15;18.20;52.00
24744;DHT22;12844;52.110;5.548;2023-04-24T15:21:40;18.20;51.90
24744;DHT22;12844;52.110;5.548;2023-04-24T15:24:08;18.20;51.90
24744;DHT22;12844;52.110;5.548;2023-04-24T15:26:33;18.30;52.00
24744;DHT22;12844;52.110;5.548;2023-04-24T15:28:59;18.20;52.00
24744;DHT22;12844;52.110;5.548;2023-04-24T15:31:25;18.20;52.10
24744;DHT22;12844;52.110;5.548;2023-04-24T15:33:51;18.20;52.10
24744;DHT22;12844;52.110;5.548;2023-04-24T15:36:17;18.20;52.00
24744;DHT22;12844;52.110;5.548;2023-04-24T15:38:44;18.20;52.00
24744;DHT22;12844;52.110;5.548;2023-04-24T15:41:10;18.20;52.10
24744;DHT22;12844;52.110;5.548;2023-04-24T15:43:35;18.20;52.00
24744;DHT22;12844;52.110;5.548;2023-04-24T15:46:01;18.20;52.00
24744;DHT22;12844;52.110;5.548;2023-04-24T15:48:28;18.20;52.00
24744;DHT22;12844;52.110;5.548;2023-04-24T15:50:54;18.20;52.00
24744;DHT22;12844;52.110;5.548;2023-04-24T15:53:20;18.20;52.00
24744;DHT22;12844;52.110;5.548;2023-04-24T15:55:49;18.20;51.90
24744;DHT22;12844;52.110;5.548;2023-04-24T15:58:16;18.20;52.70
24744;DHT22;12844;52.110;5.548;2023-04-24T16:00:41;18.20;52.00
24744;DHT22;12844;52.110;5.548;2023-04-24T16:03:07;18.20;52.00
24744;DHT22;12844;52.110;5.548;2023-04-24T16:05:33;18.20;52.00
24744;DHT22;12844;52.110;5.548;2023-04-24T16:07:58;18.20;52.00
24744;DHT22;12844;52.110;5.548;2023-04-24T16:10:24;18.20;52.00
24744;DHT22;12844;52.110;5.548;2023-04-24T16:12:50;18.20;52.00
24744;DHT22;12844;52.110;5.548;2023-04-24T16:15:17;18.20;52.00
24744;DHT22;12844;52.110;5.548;2023-04-24T16:17:43;18.20;52.00
24744;DHT22;12844;52.110;5.548;2023-04-24T16:20:09;18.20;52.00
24744;DHT22;12844;52.110;5.548;2023-04-24T16:22:35;18.20;52.00
24744;DHT22;12844;52.110;5.548;2023-04-24T16:25:00;18.20;52.00
24744;DHT22;12844;52.110;5.548;2023-04-24T16:27:26;18.20;52.00
24744;DHT22;12844;52.110;5.548;2023-04-24T16:29:51;18.20;52.00
24744;DHT22;12844;52.110;5.548;2023-04-24T16:32:17;18.20;52.00
24744;DHT22;12844;52.110;5.548;2023-04-24T16:34:43;18.20;52.00
24744;DHT22;12844;52.110;5.548;2023-04-24T16:37:08;18.10;52.00
24744;DHT22;12844;52.110;5.548;2023-04-24T16:39:34;18.10;51.90
24744;DHT22;12844;52.110;5.548;2023-04-24T16:42:00;18.20;52.00
24744;DHT22;12844;52.110;5.548;2023-04-24T16:44:26;18.20;52.00
24744;DHT22;12844;52.110;5.548;2023-04-24T16:46:51;18.20;52.00
24744;DHT22;12844;52.110;5.548;2023-04-24T16:49:17;18.20;52.00
24744;DHT22;12844;52.110;5.548;2023-04-24T16:51:43;18.10;52.00
24744;DHT22;12844;52.110;5.548;2023-04-24T16:54:08;18.10;52.00
24744;DHT22;12844;52.110;5.548;2023-04-24T16:56:34;18.10;52.00
24744;DHT22;12844;52.110;5.548;2023-04-24T16:58:59;18.10;52.00
24744;DHT22;12844;52.110;5.548;2023-04-24T17:01:25;18.10;52.00
24744;DHT22;12844;52.110;5.548;2023-04-24T17:03:50;18.10;51.90
24744;DHT22;12844;52.110;5.548;2023-04-24T17:06:16;18.10;51.90
24744;DHT22;12844;52.110;5.548;2023-04-24T17:08:41;18.10;52.00
24744;DHT22;12844;52.110;5.548;2023-04-24T17:11:07;18.10;52.00
24744;DHT22;12844;52.110;5.548;2023-04-24T17:13:32;18.10;52.00
24744;DHT22;12844;52.110;5.548;2023-04-24T17:15:58;18.10;52.00
24744;DHT22;12844;52.110;5.548;2023-04-24T17:18:23;18.00;52.00
24744;DHT22;12844;52.110;5.548;2023-04-24T17:20:49;18.00;52.00
24744;DHT22;12844;52.110;5.548;2023-04-24T17:23:15;18.00;52.00
24744;DHT22;12844;52.110;5.548;2023-04-24T17:25:40;18.10;52.10
24744;DHT22;12844;52.110;5.548;2023-04-24T17:28:20;18.00;52.00
24744;DHT22;12844;52.110;5.548;2023-04-24T17:30:47;18.00;52.10
24744;DHT22;12844;52.110;5.548;2023-04-24T17:33:13;18.00;52.10
24744;DHT22;12844;52.110;5.548;2023-04-24T17:35:39;18.00;52.00
24744;DHT22;12844;52.110;5.548;2023-04-24T17:38:04;18.00;52.10
24744;DHT22;12844;52.110;5.548;2023-04-24T17:40:30;18.00;52.10
24744;DHT22;12844;52.110;5.548;2023-04-24T17:42:55;18.00;52.00
24744;DHT22;12844;52.110;5.548;2023-04-24T17:45:21;18.00;52.00
24744;DHT22;12844;52.110;5.548;2023-04-24T17:47:46;18.00;52.00
24744;DHT22;12844;52.110;5.548;2023-04-24T17:50:12;18.00;52.00
24744;DHT22;12844;52.110;5.548;2023-04-24T17:52:38;18.00;52.00
24744;DHT22;12844;52.110;5.548;2023-04-24T17:55:04;18.00;52.00
24744;DHT22;12844;52.110;5.548;2023-04-24T17:57:30;18.00;52.00
24744;DHT22;12844;52.110;5.548;2023-04-24T17:59:55;18.00;52.00
24744;DHT22;12844;52.110;5.548;2023-04-24T18:02:21;18.00;52.00
24744;DHT22;12844;52.110;5.548;2023-04-24T18:04:47;18.10;52.00
24744;DHT22;12844;52.110;5.548;2023-04-24T18:07:12;18.00;51.90
24744;DHT22;12844;52.110;5.548;2023-04-24T18:09:38;18.00;51.90
24744;DHT22;12844;52.110;5.548;2023-04-24T18:12:03;18.00;52.00
24744;DHT22;12844;52.110;5.548;2023-04-24T18:14:29;18.10;52.00
24744;DHT22;12844;52.110;5.548;2023-04-24T18:16:55;18.00;52.00
24744;DHT22;12844;52.110;5.548;2023-04-24T18:19:20;18.00;52.10
24744;DHT22;12844;52.110;5.548;2023-04-24T18:21:46;18.00;52.00
24744;DHT22;12844;52.110;5.548;2023-04-24T18:24:12;18.00;52.00
24744;DHT22;12844;52.110;5.548;2023-04-24T18:26:37;18.00;52.00
24744;DHT22;12844;52.110;5.548;2023-04-24T18:29:03;18.00;52.00
24744;DHT22;12844;52.110;5.548;2023-04-24T18:31:28;18.00;51.90
24744;DHT22;12844;52.110;5.548;2023-04-24T18:33:56;18.00;52.00
24744;DHT22;12844;52.110;5.548;2023-04-24T18:36:21;18.00;52.00
24744;DHT22;12844;52.110;5.548;2023-04-24T18:38:47;18.00;51.90
24744;DHT22;12844;52.110;5.548;2023-04-24T18:41:12;18.00;52.00
24744;DHT22;12844;52.110;5.548;2023-04-24T18:43:38;18.00;52.00
24744;DHT22;12844;52.110;5.548;2023-04-24T18:46:04;17.90;52.00
24744;DHT22;12844;52.110;5.548;2023-04-24T18:48:29;17.90;52.00
24744;DHT22;12844;52.110;5.548;2023-04-24T18:50:55;17.90;51.90
24744;DHT22;12844;52.110;5.548;2023-04-24T18:53:21;17.90;52.00
24744;DHT22;12844;52.110;5.548;2023-04-24T18:55:46;17.90;51.90
24744;DHT22;12844;52.110;5.548;2023-04-24T18:58:12;17.90;51.90
24744;DHT22;12844;52.110;5.548;2023-04-24T19:00:38;17.90;51.90
24744;DHT22;12844;52.110;5.548;2023-04-24T19:03:03;17.90;51.90
24744;DHT22;12844;52.110;5.548;2023-04-24T19:05:29;17.90;51.90
24744;DHT22;12844;52.110;5.548;2023-04-24T19:07:55;17.80;51.90
24744;DHT22;12844;52.110;5.548;2023-04-24T19:10:20;17.80;51.90
24744;DHT22;12844;52.110;5.548;2023-04-24T19:12:46;17.80;51.90
24744;DHT22;12844;52.110;5.548;2023-04-24T19:15:13;17.90;51.90
24744;DHT22;12844;52.110;5.548;2023-04-24T19:17:39;17.80;51.90
24744;DHT22;12844;52.110;5.548;2023-04-24T19:20:05;17.80;51.80
24744;DHT22;12844;52.110;5.548;2023-04-24T19:22:31;17.80;51.90
24744;DHT22;12844;52.110;5.548;2023-04-24T19:24:56;17.80;51.90
24744;DHT22;12844;52.110;5.548;2023-04-24T19:27:23;17.80;51.80
24744;DHT22;12844;52.110;5.548;2023-04-24T19:29:49;17.80;51.80
24744;DHT22;12844;52.110;5.548;2023-04-24T19:32:16;17.80;51.80
24744;DHT22;12844;52.110;5.548;2023-04-24T19:34:41;17.80;51.90
24744;DHT22;12844;52.110;5.548;2023-04-24T19:37:07;17.80;51.80
24744;DHT22;12844;52.110;5.548;2023-04-24T19:39:33;17.80;51.90
24744;DHT22;12844;52.110;5.548;2023-04-24T19:41:58;17.80;51.80
24744;DHT22;12844;52.110;5.548;2023-04-24T19:44:25;17.80;51.90
24744;DHT22;12844;52.110;5.548;2023-04-24T19:46:50;17.80;51.90
24744;DHT22;12844;52.110;5.548;2023-04-24T19:49:16;17.80;51.90
24744;DHT22;12844;52.110;5.548;2023-04-24T19:51:41;17.80;52.50
24744;DHT22;12844;52.110;5.548;2023-04-24T19:54:07;17.80;51.90
24744;DHT22;12844;52.110;5.548;2023-04-24T19:56:33;17.80;51.90
24744;DHT22;12844;52.110;5.548;2023-04-24T19:58:58;17.80;51.90
24744;DHT22;12844;52.110;5.548;2023-04-24T20:01:24;17.70;51.80
24744;DHT22;12844;52.110;5.548;2023-04-24T20:03:50;17.80;51.90
24744;DHT22;12844;52.110;5.548;2023-04-24T20:06:15;17.70;51.80
24744;DHT22;12844;52.110;5.548;2023-04-24T20:08:41;17.70;51.80
24744;DHT22;12844;52.110;5.548;2023-04-24T20:11:07;17.70;51.80
24744;DHT22;12844;52.110;5.548;2023-04-24T20:13:32;17.70;51.90
24744;DHT22;12844;52.110;5.548;2023-04-24T20:15:58;17.80;51.90
24744;DHT22;12844;52.110;5.548;2023-04-24T20:18:24;17.70;51.90
24744;DHT22;12844;52.110;5.548;2023-04-24T20:20:52;17.70;51.90
24744;DHT22;12844;52.110;5.548;2023-04-24T20:23:21;17.70;51.90
24744;DHT22;12844;52.110;5.548;2023-04-24T20:25:47;17.70;51.90
24744;DHT22;12844;52.110;5.548;2023-04-24T20:28:13;17.70;51.90
24744;DHT22;12844;52.110;5.548;2023-04-24T20:30:39;17.70;51.90
24744;DHT22;12844;52.110;5.548;2023-04-24T20:33:05;17.70;51.90
24744;DHT22;12844;52.110;5.548;2023-04-24T20:35:30;17.70;52.00
24744;DHT22;12844;52.110;5.548;2023-04-24T20:37:56;17.70;51.90
24744;DHT22;12844;52.110;5.548;2023-04-24T20:40:23;17.70;52.00
24744;DHT22;12844;52.110;5.548;2023-04-24T20:42:49;17.60;52.00
24744;DHT22;12844;52.110;5.548;2023-04-24T20:45:15;17.70;52.00
24744;DHT22;12844;52.110;5.548;2023-04-24T20:47:42;17.60;52.00
24744;DHT22;12844;52.110;5.548;2023-04-24T20:50:08;17.70;52.00
24744;DHT22;12844;52.110;5.548;2023-04-24T20:52:33;17.60;52.00
24744;DHT22;12844;52.110;5.548;2023-04-24T20:54:59;17.50;52.30
24744;DHT22;12844;52.110;5.548;2023-04-24T20:57:25;17.40;52.70
24744;DHT22;12844;52.110;5.548;2023-04-24T20:59:50;17.30;53.40
24744;DHT22;12844;52.110;5.548;2023-04-24T21:02:16;17.30;53.60
24744;DHT22;12844;52.110;5.548;2023-04-24T21:04:41;17.50;53.50
24744;DHT22;12844;52.110;5.548;2023-04-24T21:07:07;17.60;53.10
24744;DHT22;12844;52.110;5.548;2023-04-24T21:09:34;17.80;53.10
24744;DHT22;12844;52.110;5.548;2023-04-24T21:12:00;18.00;53.10
24744;DHT22;12844;52.110;5.548;2023-04-24T21:14:27;18.20;52.80
24744;DHT22;12844;52.110;5.548;2023-04-24T21:16:52;18.50;52.40
24744;DHT22;12844;52.110;5.548;2023-04-24T21:19:20;18.70;52.60
24744;DHT22;12844;52.110;5.548;2023-04-24T21:21:46;18.80;52.60
24744;DHT22;12844;52.110;5.548;2023-04-24T21:24:11;19.00;52.70
24744;DHT22;12844;52.110;5.548;2023-04-24T21:26:37;19.20;52.50
24744;DHT22;12844;52.110;5.548;2023-04-24T21:29:02;19.40;53.00
24744;DHT22;12844;52.110;5.548;2023-04-24T21:31:28;19.40;52.40
24744;DHT22;12844;52.110;5.548;2023-04-24T21:33:53;19.50;52.30
24744;DHT22;12844;52.110;5.548;2023-04-24T21:36:19;19.40;52.40
24744;DHT22;12844;52.110;5.548;2023-04-24T21:38:44;19.50;52.40
24744;DHT22;12844;52.110;5.548;2023-04-24T21:41:10;19.60;52.40
24744;DHT22;12844;52.110;5.548;2023-04-24T21:43:36;19.50;52.50
24744;DHT22;12844;52.110;5.548;2023-04-24T21:46:01;19.40;52.90
24744;DHT22;12844;52.110;5.548;2023-04-24T21:48:27;19.50;52.90
24744;DHT22;12844;52.110;5.548;2023-04-24T21:50:52;19.50;52.90
24744;DHT22;12844;52.110;5.548;2023-04-24T21:53:18;19.50;52.90
24744;DHT22;12844;52.110;5.548;2023-04-24T21:55:44;19.60;52.90
24744;DHT22;12844;52.110;5.548;2023-04-24T21:58:10;19.50;53.00
24744;DHT22;12844;52.110;5.548;2023-04-24T22:00:35;19.50;53.00
24744;DHT22;12844;52.110;5.548;2023-04-24T22:03:02;19.50;53.00
24744;DHT22;12844;52.110;5.548;2023-04-24T22:05:28;19.40;53.00
24744;DHT22;12844;52.110;5.548;2023-04-24T22:07:55;19.50;53.00
24744;DHT22;12844;52.110;5.548;2023-04-24T22:10:23;19.40;53.20
24744;DHT22;12844;52.110;5.548;2023-04-24T22:12:49;19.40;53.30
24744;DHT22;12844;52.110;5.548;2023-04-24T22:15:15;19.30;53.30
24744;DHT22;12844;52.110;5.548;2023-04-24T22:17:41;19.20;53.50
24744;DHT22;12844;52.110;5.548;2023-04-24T22:20:06;19.40;53.20
24744;DHT22;12844;52.110;5.548;2023-04-24T22:22:33;19.60;52.60
24744;DHT22;12844;52.110;5.548;2023-04-24T22:24:59;19.60;52.30